sensor_id;sensor_type;location;lat;lon;timestamp;temperature;humidity
62154;DHT22;48140;45.486;9.226;2023-07-08T01:02:33;24.80;86.20
62154;DHT22;48140;45.486;9.226;2023-07-08T01:05:07;24.70;86.30
62154;DHT22;48140;45.486;9.226;2023-07-08T01:07:36;24.80;87.30
62154;DHT22;48140;45.486;9.226;2023-07-08T01:10:03;24.90;86.30
62154;DHT22;48140;45.486;9.226;2023-07-08T01:12:31;24.90;85.90
62154;DHT22;48140;45.486;9.226;2023-07-08T01:14:58;24.90;85.70
62154;DHT22;48140;45.486;9.226;2023-07-08T01:17:27;24.80;85.70
62154;DHT22;48140;45.486;9.226;2023-07-08T01:19:58;24.80;85.70
62154;DHT22;48140;45.486;9.226;2023-07-08T01:22:24;24.70;85.40
62154;DHT22;48140;45.486;9.226;2023-07-08T01:24:49;24.70;85.50
62154;DHT22;48140;45.486;9.226;2023-07-08T01:27:16;24.70;85.70
62154;DHT22;48140;45.486;9.226;2023-07-08T01:29:42;24.80;85.50
62154;DHT22;48140;45.486;9.226;2023-07-08T01:32:11;24.80;85.30
62154;DHT22;48140;45.486;9.226;2023-07-08T01:34:43;24.80;85.50
62154;DHT22;48140;45.486;9.226;2023-07-08T01:37:15;24.80;85.40
62154;DHT22;48140;45.486;9.226;2023-07-08T01:39:40;24.80;85.10
62154;DHT22;48140;45.486;9.226;2023-07-08T01:42:06;24.80;84.80
62154;DHT22;48140;45.486;9.226;2023-07-08T01:44:32;24.80;84.90
62154;DHT22;48140;45.486;9.226;2023-07-08T01:47:08;24.80;85.20
62154;DHT22;48140;45.486;9.226;2023-07-08T01:49:35;24.70;85.40
62154;DHT22;48140;45.486;9.226;2023-07-08T01:52:02;24.70;85.70
62154;DHT22;48140;45.486;9.226;2023-07-08T01:54:28;24.70;85.80
62154;DHT22;48140;45.486;9.226;2023-07-08T01:56:54;24.70;86.00
62154;DHT22;48140;45.486;9.226;2023-07-08T01:59:20;24.70;86.30
62154;DHT22;48140;45.486;9.226;2023-07-08T02:01:46;24.60;86.40
62154;DHT22;48140;45.486;9.226;2023-07-08T02:04:12;24.60;86.80
62154;DHT22;48140;45.486;9.226;2023-07-08T02:06:38;24.60;86.70
62154;DHT22;48140;45.486;9.226;2023-07-08T02:09:03;24.50;87.20
62154;DHT22;48140;45.486;9.226;2023-07-08T02:11:30;24.50;87.20
62154;DHT22;48140;45.486;9.226;2023-07-08T02:13:56;24.50;86.70
62154;DHT22;48140;45.486;9.226;2023-07-08T02:16:21;24.50;86.60
62154;DHT22;48140;45.486;9.226;2023-07-08T02:18:47;24.50;86.20
62154;DHT22;48140;45.486;9.226;2023-07-08T02:21:12;24.50;86.20
62154;DHT22;48140;45.486;9.226;2023-07-08T02:23:38;24.50;86.90
62154;DHT22;48140;45.486;9.226;2023-07-08T02:26:04;24.50;86.00
62154;DHT22;48140;45.486;9.226;2023-07-08T02:28:30;24.60;85.50
62154;DHT22;48140;45.486;9.226;2023-07-08T02:30:55;24.60;85.10
62154;DHT22;48140;45.486;9.226;2023-07-08T02:33:21;24.70;84.70
62154;DHT22;48140;45.486;9.226;2023-07-08T02:35:52;24.70;84.40
62154;DHT22;48140;45.486;9.226;2023-07-08T02:38:18;24.80;84.30
62154;DHT22;48140;45.486;9.226;2023-07-08T02:40:44;24.80;83.90
62154;DHT22;48140;45.486;9.226;2023-07-08T02:43:09;24.90;83.70
62154;DHT22;48140;45.486;9.226;2023-07-08T02:45:35;24.80;83.40
62154;DHT22;48140;45.486;9.226;2023-07-08T02:48:01;24.80;83.50
62154;DHT22;48140;45.486;9.226;2023-07-08T02:50:26;24.90;83.40
62154;DHT22;48140;45.486;9.226;2023-07-08T02:52:52;24.80;83.30
62154;DHT22;48140;45.486;9.226;2023-07-08T02:55:17;24.80;83.00
62154;DHT22;48140;45.486;9.226;2023-07-08T02:57:43;24.80;83.50
62154;DHT22;48140;45.486;9.226;2023-07-08T03:00:09;24.80;84.40
62154;DHT22;48140;45.486;9.226;2023-07-08T03:02:34;24.80;84.80
62154;DHT22;48140;45.486;9.226;2023-07-08T03:05:00;24.70;84.80
62154;DHT22;48140;45.486;9.226;2023-07-08T03:07:26;24.70;85.40
62154;DHT22;48140;45.486;9.226;2023-07-08T03:09:51;24.70;86.20
62154;DHT22;48140;45.486;9.226;2023-07-08T03:12:17;24.60;86.10
62154;DHT22;48140;45.486;9.226;2023-07-08T03:14:42;24.50;86.10
62154;DHT22;48140;45.486;9.226;2023-07-08T03:17:08;24.50;86.20
62154;DHT22;48140;45.486;9.226;2023-07-08T03:19:33;24.50;86.40
62154;DHT22;48140;45.486;9.226;2023-07-08T03:22:00;24.40;86.60
62154;DHT22;48140;45.486;9.226;2023-07-08T03:24:28;24.40;85.70
62154;DHT22;48140;45.486;9.226;2023-07-08T03:26:55;24.50;85.70
62154;DHT22;48140;45.486;9.226;2023-07-08T03:29:20;24.40;85.90
62154;DHT22;48140;45.486;9.226;2023-07-08T03:31:46;24.50;85.80
62154;DHT22;48140;45.486;9.226;2023-07-08T03:34:12;24.50;86.30
62154;DHT22;48140;45.486;9.226;2023-07-08T03:36:45;24.40;86.40
62154;DHT22;48140;45.486;9.226;2023-07-08T03:39:23;24.40;86.70
62154;DHT22;48140;45.486;9.226;2023-07-08T03:41:49;24.50;86.70
62154;DHT22;48140;45.486;9.226;2023-07-08T03:44:15;24.50;86.00
62154;DHT22;48140;45.486;9.226;2023-07-08T03:46:43;24.50;86.50
62154;DHT22;48140;45.486;9.226;2023-07-08T03:49:09;24.50;86.10
62154;DHT22;48140;45.486;9.226;2023-07-08T03:51:36;24.50;86.20
62154;DHT22;48140;45.486;9.226;2023-07-08T03:54:02;24.50;86.10
62154;DHT22;48140;45.486;9.226;2023-07-08T03:56:27;24.40;86.20
62154;DHT22;48140;45.486;9.226;2023-07-08T03:58:53;24.40;86.60
62154;DHT22;48140;45.486;9.226;2023-07-08T04:01:19;24.40;86.80
62154;DHT22;48140;45.486;9.226;2023-07-08T04:03:46;24.40;86.90
62154;DHT22;48140;45.486;9.226;2023-07-08T04:06:12;24.40;87.10
62154;DHT22;48140;45.486;9.226;2023-07-08T04:08:37;24.40;87.30
62154;DHT22;48140;45.486;9.226;2023-07-08T04:11:03;24.50;87.10
62154;DHT22;48140;45.486;9.226;2023-07-08T04:13:29;24.50;87.00
62154;DHT22;48140;45.486;9.226;2023-07-08T04:15:59;24.50;87.30
62154;DHT22;48140;45.486;9.226;2023-07-08T04:18:25;24.40;87.80
62154;DHT22;48140;45.486;9.226;2023-07-08T04:20:51;24.40;88.00
62154;DHT22;48140;45.486;9.226;2023-07-08T04:23:18;24.30;88.10
62154;DHT22;48140;45.486;9.226;2023-07-08T04:25:44;24.30;88.20
62154;DHT22;48140;45.486;9.226;2023-07-08T04:28:10;24.30;88.10
62154;DHT22;48140;45.486;9.226;2023-07-08T04:30:35;24.30;87.70
62154;DHT22;48140;45.486;9.226;2023-07-08T04:33:09;24.50;87.40
62154;DHT22;48140;45.486;9.226;2023-07-08T04:35:35;24.40;87.60
62154;DHT22;48140;45.486;9.226;2023-07-08T04:38:02;24.40;87.80
62154;DHT22;48140;45.486;9.226;2023-07-08T04:40:34;24.50;87.60
62154;DHT22;48140;45.486;9.226;2023-07-08T04:43:02;24.50;87.40
62154;DHT22;48140;45.486;9.226;2023-07-08T04:45:28;24.50;87.40
62154;DHT22;48140;45.486;9.226;2023-07-08T04:47:53;24.50;87.60
62154;DHT22;48140;45.486;9.226;2023-07-08T04:50:19;24.50;87.90
62154;DHT22;48140;45.486;9.226;2023-07-08T04:52:45;24.40;87.90
62154;DHT22;48140;45.486;9.226;2023-07-08T04:55:11;24.40;88.60
62154;DHT22;48140;45.486;9.226;2023-07-08T04:57:37;24.40;88.80
62154;DHT22;48140;45.486;9.226;2023-07-08T05:00:03;24.40;89.20
62154;DHT22;48140;45.486;9.226;2023-07-08T05:02:29;24.40;89.40
62154;DHT22;48140;45.486;9.226;2023-07-08T05:04:54;24.40;89.30
62154;DHT22;48140;45.486;9.226;2023-07-08T05:07:20;24.50;89.70
62154;DHT22;48140;45.486;9.226;2023-07-08T05:09:45;24.50;89.30
62154;DHT22;48140;45.486;9.226;2023-07-08T05:12:11;24.60;89.10
62154;DHT22;48140;45.486;9.226;2023-07-08T05:14:36;24.70;89.00
62154;DHT22;48140;45.486;9.226;2023-07-08T05:17:02;24.70;88.60
62154;DHT22;48140;45.486;9.226;2023-07-08T05:19:28;24.70;88.70
62154;DHT22;48140;45.486;9.226;2023-07-08T05:21:53;24.70;89.00
62154;DHT22;48140;45.486;9.226;2023-07-08T05:24:19;24.70;89.20
62154;DHT22;48140;45.486;9.226;2023-07-08T05:26:45;24.60;89.00
62154;DHT22;48140;45.486;9.226;2023-07-08T05:29:11;24.70;89.00
62154;DHT22;48140;45.486;9.226;2023-07-08T05:31:36;24.80;89.00
62154;DHT22;48140;45.486;9.226;2023-07-08T05:34:02;24.90;88.90
62154;DHT22;48140;45.486;9.226;2023-07-08T05:36:27;25.00;88.10
62154;DHT22;48140;45.486;9.226;2023-07-08T05:38:53;25.10;87.70
62154;DHT22;48140;45.486;9.226;2023-07-08T05:41:18;25.10;87.10
62154;DHT22;48140;45.486;9.226;2023-07-08T05:43:44;25.20;86.90
62154;DHT22;48140;45.486;9.226;2023-07-08T05:46:09;25.40;86.60
62154;DHT22;48140;45.486;9.226;2023-07-08T05:48:35;25.60;86.00
62154;DHT22;48140;45.486;9.226;2023-07-08T05:51:02;25.80;85.10
62154;DHT22;48140;45.486;9.226;2023-07-08T05:53:27;25.90;84.60
62154;DHT22;48140;45.486;9.226;2023-07-08T05:55:53;26.10;84.00
62154;DHT22;48140;45.486;9.226;2023-07-08T05:58:19;26.20;83.50
62154;DHT22;48140;45.486;9.226;2023-07-08T06:00:44;26.30;82.70
62154;DHT22;48140;45.486;9.226;2023-07-08T06:03:10;26.50;81.90
62154;DHT22;48140;45.486;9.226;2023-07-08T06:05:36;26.50;80.90
62154;DHT22;48140;45.486;9.226;2023-07-08T06:08:02;26.50;81.10
62154;DHT22;48140;45.486;9.226;2023-07-08T06:10:27;26.50;81.60
62154;DHT22;48140;45.486;9.226;2023-07-08T06:12:53;26.60;81.30
62154;DHT22;48140;45.486;9.226;2023-07-08T06:15:18;26.80;80.90
62154;DHT22;48140;45.486;9.226;2023-07-08T06:17:44;26.60;80.90
62154;DHT22;48140;45.486;9.226;2023-07-08T06:20:09;26.60;80.90
62154;DHT22;48140;45.486;9.226;2023-07-08T06:22:35;26.50;81.10
62154;DHT22;48140;45.486;9.226;2023-07-08T06:25:00;26.50;81.20
62154;DHT22;48140;45.486;9.226;2023-07-08T06:27:26;26.50;81.20
62154;DHT22;48140;45.486;9.226;2023-07-08T06:29:52;26.50;81.10
62154;DHT22;48140;45.486;9.226;2023-07-08T06:32:18;26.40;81.60
62154;DHT22;48140;45.486;9.226;2023-07-08T06:34:43;26.40;81.60
62154;DHT22;48140;45.486;9.226;2023-07-08T06:37:09;26.60;81.00
62154;DHT22;48140;45.486;9.226;2023-07-08T06:39:35;26.90;80.90
62154;DHT22;48140;45.486;9.226;2023-07-08T06:42:00;27.20;79.30
62154;DHT22;48140;45.486;9.226;2023-07-08T06:44:26;27.30;77.90
62154;DHT22;48140;45.486;9.226;2023-07-08T06:46:51;27.60;77.00
62154;DHT22;48140;45.486;9.226;2023-07-08T06:49:17;27.80;76.80
62154;DHT22;48140;45.486;9.226;2023-07-08T06:51:43;28.00;76.50
62154;DHT22;48140;45.486;9.226;2023-07-08T06:54:10;28.00;75.40
62154;DHT22;48140;45.486;9.226;2023-07-08T06:56:37;28.20;74.20
62154;DHT22;48140;45.486;9.226;2023-07-08T06:59:03;28.10;75.10
62154;DHT22;48140;45.486;9.226;2023-07-08T07:01:28;27.90;75.80
62154;DHT22;48140;45.486;9.226;2023-07-08T07:03:54;27.80;75.90
62154;DHT22;48140;45.486;9.226;2023-07-08T07:06:19;27.90;76.10
62154;DHT22;48140;45.486;9.226;2023-07-08T07:08:45;28.00;75.30
62154;DHT22;48140;45.486;9.226;2023-07-08T07:11:10;27.90;76.80
62154;DHT22;48140;45.486;9.226;2023-07-08T07:13:36;27.80;76.60
62154;DHT22;48140;45.486;9.226;2023-07-08T07:16:01;27.70;76.10
62154;DHT22;48140;45.486;9.226;2023-07-08T07:18:27;27.70;73.40
62154;DHT22;48140;45.486;9.226;2023-07-08T07:20:53;27.90;73.70
62154;DHT22;48140;45.486;9.226;2023-07-08T07:23:19;28.00;72.30
62154;DHT22;48140;45.486;9.226;2023-07-08T07:25:45;28.10;72.70
62154;DHT22;48140;45.486;9.226;2023-07-08T07:28:13;28.10;70.70
62154;DHT22;48140;45.486;9.226;2023-07-08T07:30:38;28.10;68.30
62154;DHT22;48140;45.486;9.226;2023-07-08T07:33:04;28.10;69.20
62154;DHT22;48140;45.486;9.226;2023-07-08T07:35:30;28.10;70.00
62154;DHT22;48140;45.486;9.226;2023-07-08T07:37:55;28.10;70.40
62154;DHT22;48140;45.486;9.226;2023-07-08T07:40:21;28.30;68.20
62154;DHT22;48140;45.486;9.226;2023-07-08T07:42:46;28.40;67.50
62154;DHT22;48140;45.486;9.226;2023-07-08T07:45:12;28.60;67.20
62154;DHT22;48140;45.486;9.226;2023-07-08T07:47:38;28.70;67.30
62154;DHT22;48140;45.486;9.226;2023-07-08T07:50:04;28.80;65.10
62154;DHT22;48140;45.486;9.226;2023-07-08T07:52:30;28.90;65.10
62154;DHT22;48140;45.486;9.226;2023-07-08T07:54:56;29.00;64.40
62154;DHT22;48140;45.486;9.226;2023-07-08T07:57:21;28.90;64.90
62154;DHT22;48140;45.486;9.226;2023-07-08T07:59:48;28.90;62.80
62154;DHT22;48140;45.486;9.226;2023-07-08T08:02:14;28.80;62.60
62154;DHT22;48140;45.486;9.226;2023-07-08T08:04:39;28.90;63.40
62154;DHT22;48140;45.486;9.226;2023-07-08T08:07:05;29.00;63.60
62154;DHT22;48140;45.486;9.226;2023-07-08T08:09:30;29.10;62.70
62154;DHT22;48140;45.486;9.226;2023-07-08T08:11:56;29.30;62.40
62154;DHT22;48140;45.486;9.226;2023-07-08T08:14:21;29.50;60.20
62154;DHT22;48140;45.486;9.226;2023-07-08T08:16:47;29.60;58.00
62154;DHT22;48140;45.486;9.226;2023-07-08T08:19:13;29.70;58.60
62154;DHT22;48140;45.486;9.226;2023-07-08T08:21:38;30.00;58.90
62154;DHT22;48140;45.486;9.226;2023-07-08T08:24:04;30.10;56.90
62154;DHT22;48140;45.486;9.226;2023-07-08T08:26:29;30.30;55.40
62154;DHT22;48140;45.486;9.226;2023-07-08T08:28:55;30.00;54.30
62154;DHT22;48140;45.486;9.226;2023-07-08T08:31:21;29.80;55.60
62154;DHT22;48140;45.486;9.226;2023-07-08T08:33:46;29.80;55.40
62154;DHT22;48140;45.486;9.226;2023-07-08T08:36:11;29.90;56.40
62154;DHT22;48140;45.486;9.226;2023-07-08T08:38:37;29.80;55.30
62154;DHT22;48140;45.486;9.226;2023-07-08T08:41:10;29.60;54.60
62154;DHT22;48140;45.486;9.226;2023-07-08T08:43:37;29.60;54.10
62154;DHT22;48140;45.486;9.226;2023-07-08T08:46:06;29.60;53.90
62154;DHT22;48140;45.486;9.226;2023-07-08T08:48:35;29.60;52.20
62154;DHT22;48140;45.486;9.226;2023-07-08T08:51:07;29.70;51.00
62154;DHT22;48140;45.486;9.226;2023-07-08T08:53:35;29.90;50.40
62154;DHT22;48140;45.486;9.226;2023-07-08T08:56:03;30.10;50.20
62154;DHT22;48140;45.486;9.226;2023-07-08T08:58:33;30.30;50.10
62154;DHT22;48140;45.486;9.226;2023-07-08T09:01:01;30.60;48.90
62154;DHT22;48140;45.486;9.226;2023-07-08T09:06:12;30.80;48.10
62154;DHT22;48140;45.486;9.226;2023-07-08T09:08:38;30.80;48.40
62154;DHT22;48140;45.486;9.226;2023-07-08T09:13:34;30.60;48.80
62154;DHT22;48140;45.486;9.226;2023-07-08T09:18:30;30.80;49.00
62154;DHT22;48140;45.486;9.226;2023-07-08T09:20:58;30.70;50.70
62154;DHT22;48140;45.486;9.226;2023-07-08T09:23:28;30.80;49.90
62154;DHT22;48140;45.486;9.226;2023-07-08T09:25:59;30.80;49.60
62154;DHT22;48140;45.486;9.226;2023-07-08T09:28:40;31.00;48.60
62154;DHT22;48140;45.486;9.226;2023-07-08T09:31:06;31.20;47.20
62154;DHT22;48140;45.486;9.226;2023-07-08T09:33:37;31.40;46.00
62154;DHT22;48140;45.486;9.226;2023-07-08T09:36:15;31.10;45.50
62154;DHT22;48140;45.486;9.226;2023-07-08T09:38:41;31.20;45.00
62154;DHT22;48140;45.486;9.226;2023-07-08T09:41:06;31.00;45.80
62154;DHT22;48140;45.486;9.226;2023-07-08T09:43:37;30.80;47.00
62154;DHT22;48140;45.486;9.226;2023-07-08T09:46:03;30.80;47.30
62154;DHT22;48140;45.486;9.226;2023-07-08T09:48:29;30.80;45.20
62154;DHT22;48140;45.486;9.226;2023-07-08T09:50:58;30.80;45.20
62154;DHT22;48140;45.486;9.226;2023-07-08T09:53:25;31.00;43.80
62154;DHT22;48140;45.486;9.226;2023-07-08T09:55:52;31.20;42.20
62154;DHT22;48140;45.486;9.226;2023-07-08T09:58:31;31.30;42.60
62154;DHT22;48140;45.486;9.226;2023-07-08T10:00:58;31.50;39.50
62154;DHT22;48140;45.486;9.226;2023-07-08T10:03:31;31.70;39.50
62154;DHT22;48140;45.486;9.226;2023-07-08T10:05:57;31.70;38.70
62154;DHT22;48140;45.486;9.226;2023-07-08T10:08:28;31.80;37.60
62154;DHT22;48140;45.486;9.226;2023-07-08T10:11:19;31.90;37.50
62154;DHT22;48140;45.486;9.226;2023-07-08T10:13:45;31.80;35.40
62154;DHT22;48140;45.486;9.226;2023-07-08T10:16:14;31.80;36.30
62154;DHT22;48140;45.486;9.226;2023-07-08T10:18:40;31.80;35.00
62154;DHT22;48140;45.486;9.226;2023-07-08T10:21:14;32.00;35.20
62154;DHT22;48140;45.486;9.226;2023-07-08T10:24:10;32.10;34.90
62154;DHT22;48140;45.486;9.226;2023-07-08T10:26:41;32.00;34.10
62154;DHT22;48140;45.486;9.226;2023-07-08T10:31:41;32.00;32.80
62154;DHT22;48140;45.486;9.226;2023-07-08T10:46:57;32.60;32.80
62154;DHT22;48140;45.486;9.226;2023-07-08T10:49:31;32.50;32.20
62154;DHT22;48140;45.486;9.226;2023-07-08T10:54:34;32.30;33.80
62154;DHT22;48140;45.486;9.226;2023-07-08T10:57:07;32.40;34.30
62154;DHT22;48140;45.486;9.226;2023-07-08T11:07:40;32.80;32.10
62154;DHT22;48140;45.486;9.226;2023-07-08T11:10:12;33.00;30.90
62154;DHT22;48140;45.486;9.226;2023-07-08T11:12:41;33.20;31.80
62154;DHT22;48140;45.486;9.226;2023-07-08T11:15:18;33.40;30.30
62154;DHT22;48140;45.486;9.226;2023-07-08T11:17:49;33.50;29.30
62154;DHT22;48140;45.486;9.226;2023-07-08T11:20:19;33.50;29.40
62154;DHT22;48140;45.486;9.226;2023-07-08T11:22:57;33.60;29.40
62154;DHT22;48140;45.486;9.226;2023-07-08T11:25:24;33.50;28.30
62154;DHT22;48140;45.486;9.226;2023-07-08T11:27:52;33.60;27.90
62154;DHT22;48140;45.486;9.226;2023-07-08T11:30:22;33.60;28.70
62154;DHT22;48140;45.486;9.226;2023-07-08T11:32:54;33.80;28.50
62154;DHT22;48140;45.486;9.226;2023-07-08T11:35:32;34.00;28.20
62154;DHT22;48140;45.486;9.226;2023-07-08T11:37:58;33.80;28.30
62154;DHT22;48140;45.486;9.226;2023-07-08T11:40:24;33.90;30.00
62154;DHT22;48140;45.486;9.226;2023-07-08T11:42:50;34.00;29.40
62154;DHT22;48140;45.486;9.226;2023-07-08T11:45:24;34.00;29.20
62154;DHT22;48140;45.486;9.226;2023-07-08T11:47:51;33.90;28.20
62154;DHT22;48140;45.486;9.226;2023-07-08T11:50:39;33.70;29.20
62154;DHT22;48140;45.486;9.226;2023-07-08T11:53:03;33.80;29.00
62154;DHT22;48140;45.486;9.226;2023-07-08T11:55:38;34.10;29.50
62154;DHT22;48140;45.486;9.226;2023-07-08T11:58:08;34.20;29.80
62154;DHT22;48140;45.486;9.226;2023-07-08T12:00:41;34.30;29.40
62154;DHT22;48140;45.486;9.226;2023-07-08T12:03:20;34.60;29.50
62154;DHT22;48140;45.486;9.226;2023-07-08T12:05:46;34.70;29.10
62154;DHT22;48140;45.486;9.226;2023-07-08T12:08:14;34.60;28.80
62154;DHT22;48140;45.486;9.226;2023-07-08T12:10:40;34.60;28.60
62154;DHT22;48140;45.486;9.226;2023-07-08T12:13:11;34.70;28.60
62154;DHT22;48140;45.486;9.226;2023-07-08T12:15:38;34.70;29.00
62154;DHT22;48140;45.486;9.226;2023-07-08T12:20:36;34.80;28.90
62154;DHT22;48140;45.486;9.226;2023-07-08T12:23:03;34.90;28.80
62154;DHT22;48140;45.486;9.226;2023-07-08T12:25:32;35.00;28.80
62154;DHT22;48140;45.486;9.226;2023-07-08T12:28:00;35.10;29.10
62154;DHT22;48140;45.486;9.226;2023-07-08T12:30:27;35.10;28.90
62154;DHT22;48140;45.486;9.226;2023-07-08T12:32:53;35.00;28.70
62154;DHT22;48140;45.486;9.226;2023-07-08T12:35:30;35.20;28.70
62154;DHT22;48140;45.486;9.226;2023-07-08T12:38:02;35.00;29.40
62154;DHT22;48140;45.486;9.226;2023-07-08T12:40:29;35.10;29.60
62154;DHT22;48140;45.486;9.226;2023-07-08T12:42:55;35.20;29.20
62154;DHT22;48140;45.486;9.226;2023-07-08T12:45:22;35.20;29.50
62154;DHT22;48140;45.486;9.226;2023-07-08T12:47:48;35.30;30.00
62154;DHT22;48140;45.486;9.226;2023-07-08T12:50:14;35.50;28.80
62154;DHT22;48140;45.486;9.226;2023-07-08T12:52:39;35.60;28.20
62154;DHT22;48140;45.486;9.226;2023-07-08T12:55:07;35.60;28.90
62154;DHT22;48140;45.486;9.226;2023-07-08T12:57:33;35.40;29.00
62154;DHT22;48140;45.486;9.226;2023-07-08T12:59:59;35.00;29.50
62154;DHT22;48140;45.486;9.226;2023-07-08T13:02:26;35.20;29.30
62154;DHT22;48140;45.486;9.226;2023-07-08T13:04:53;35.40;29.10
62154;DHT22;48140;45.486;9.226;2023-07-08T13:09:49;35.30;28.80
62154;DHT22;48140;45.486;9.226;2023-07-08T13:12:18;35.40;28.90
62154;DHT22;48140;45.486;9.226;2023-07-08T13:14:50;35.60;28.40
62154;DHT22;48140;45.486;9.226;2023-07-08T13:17:16;35.80;27.50
62154;DHT22;48140;45.486;9.226;2023-07-08T13:19:43;35.90;28.40
62154;DHT22;48140;45.486;9.226;2023-07-08T13:22:12;35.90;28.00
62154;DHT22;48140;45.486;9.226;2023-07-08T13:24:38;35.90;28.00
62154;DHT22;48140;45.486;9.226;2023-07-08T13:27:05;36.00;27.90
62154;DHT22;48140;45.486;9.226;2023-07-08T13:29:34;36.00;27.70
62154;DHT22;48140;45.486;9.226;2023-07-08T13:32:04;36.10;28.10
62154;DHT22;48140;45.486;9.226;2023-07-08T13:34:30;36.10;28.50
62154;DHT22;48140;45.486;9.226;2023-07-08T13:36:57;36.10;28.80
62154;DHT22;48140;45.486;9.226;2023-07-08T13:39:27;36.10;28.80
62154;DHT22;48140;45.486;9.226;2023-07-08T13:41:54;36.30;28.40
62154;DHT22;48140;45.486;9.226;2023-07-08T13:44:20;36.20;27.60
62154;DHT22;48140;45.486;9.226;2023-07-08T13:50:00;36.30;27.30
62154;DHT22;48140;45.486;9.226;2023-07-08T13:54:40;36.30;27.40
62154;DHT22;48140;45.486;9.226;2023-07-08T13:57:15;36.30;27.40
62154;DHT22;48140;45.486;9.226;2023-07-08T13:59:40;35.60;27.90
62154;DHT22;48140;45.486;9.226;2023-07-08T14:02:18;35.50;28.10
62154;DHT22;48140;45.486;9.226;2023-07-08T14:04:45;35.80;28.20
62154;DHT22;48140;45.486;9.226;2023-07-08T14:07:13;35.90;27.90
62154;DHT22;48140;45.486;9.226;2023-07-08T14:09:40;35.90;27.90
62154;DHT22;48140;45.486;9.226;2023-07-08T14:12:06;36.00;27.80
62154;DHT22;48140;45.486;9.226;2023-07-08T14:14:32;36.20;27.70
62154;DHT22;48140;45.486;9.226;2023-07-08T14:16:57;36.10;26.80
62154;DHT22;48140;45.486;9.226;2023-07-08T14:19:23;35.90;27.30
62154;DHT22;48140;45.486;9.226;2023-07-08T14:22:35;35.90;27.30
62154;DHT22;48140;45.486;9.226;2023-07-08T14:24:35;35.50;27.10
62154;DHT22;48140;45.486;9.226;2023-07-08T14:27:01;35.30;27.50
62154;DHT22;48140;45.486;9.226;2023-07-08T14:29:26;35.00;27.80
62154;DHT22;48140;45.486;9.226;2023-07-08T14:31:52;35.00;28.20
62154;DHT22;48140;45.486;9.226;2023-07-08T14:34:24;35.20;28.00
62154;DHT22;48140;45.486;9.226;2023-07-08T14:36:50;35.50;27.70
62154;DHT22;48140;45.486;9.226;2023-07-08T14:39:16;35.70;27.90
62154;DHT22;48140;45.486;9.226;2023-07-08T14:41:43;36.00;27.10
62154;DHT22;48140;45.486;9.226;2023-07-08T14:44:22;35.80;27.30
62154;DHT22;48140;45.486;9.226;2023-07-08T14:46:48;36.00;27.00
62154;DHT22;48140;45.486;9.226;2023-07-08T14:49:16;35.70;27.10
62154;DHT22;48140;45.486;9.226;2023-07-08T14:51:42;35.80;27.50
62154;DHT22;48140;45.486;9.226;2023-07-08T14:54:07;36.10;27.30
62154;DHT22;48140;45.486;9.226;2023-07-08T14:56:33;36.20;27.10
62154;DHT22;48140;45.486;9.226;2023-07-08T14:58:58;35.90;26.80
62154;DHT22;48140;45.486;9.226;2023-07-08T15:01:24;35.30;26.90
62154;DHT22;48140;45.486;9.226;2023-07-08T15:03:55;35.20;27.60
62154;DHT22;48140;45.486;9.226;2023-07-08T15:06:21;35.20;27.90
62154;DHT22;48140;45.486;9.226;2023-07-08T15:08:47;35.20;27.60
62154;DHT22;48140;45.486;9.226;2023-07-08T15:11:13;35.00;27.50
62154;DHT22;48140;45.486;9.226;2023-07-08T15:13:39;35.20;27.90
62154;DHT22;48140;45.486;9.226;2023-07-08T15:16:05;35.40;27.70
62154;DHT22;48140;45.486;9.226;2023-07-08T15:18:30;35.70;27.40
62154;DHT22;48140;45.486;9.226;2023-07-08T15:20:56;36.00;27.10
62154;DHT22;48140;45.486;9.226;2023-07-08T15:23:21;35.90;26.80
62154;DHT22;48140;45.486;9.226;2023-07-08T15:25:47;36.10;26.90
62154;DHT22;48140;45.486;9.226;2023-07-08T15:30:41;36.40;26.80
62154;DHT22;48140;45.486;9.226;2023-07-08T15:33:10;36.20;26.80
62154;DHT22;48140;45.486;9.226;2023-07-08T15:35:36;36.20;26.40
62154;DHT22;48140;45.486;9.226;2023-07-08T15:38:01;36.00;26.60
62154;DHT22;48140;45.486;9.226;2023-07-08T15:40:30;36.10;26.70
62154;DHT22;48140;45.486;9.226;2023-07-08T15:42:56;35.90;26.60
62154;DHT22;48140;45.486;9.226;2023-07-08T15:45:24;35.80;27.40
62154;DHT22;48140;45.486;9.226;2023-07-08T15:47:50;35.90;26.80
62154;DHT22;48140;45.486;9.226;2023-07-08T15:50:17;35.60;27.00
62154;DHT22;48140;45.486;9.226;2023-07-08T15:52:43;35.10;27.80
62154;DHT22;48140;45.486;9.226;2023-07-08T15:55:09;35.00;27.90
62154;DHT22;48140;45.486;9.226;2023-07-08T15:57:46;35.20;27.70
62154;DHT22;48140;45.486;9.226;2023-07-08T16:00:19;34.90;27.70
62154;DHT22;48140;45.486;9.226;2023-07-08T16:02:48;34.70;28.60
62154;DHT22;48140;45.486;9.226;2023-07-08T16:05:16;34.90;28.00
62154;DHT22;48140;45.486;9.226;2023-07-08T16:07:41;34.40;29.00
62154;DHT22;48140;45.486;9.226;2023-07-08T16:10:07;34.70;29.20
62154;DHT22;48140;45.486;9.226;2023-07-08T16:12:33;34.40;28.90
62154;DHT22;48140;45.486;9.226;2023-07-08T16:14:59;34.20;29.80
62154;DHT22;48140;45.486;9.226;2023-07-08T16:17:24;33.60;29.80
62154;DHT22;48140;45.486;9.226;2023-07-08T16:19:50;33.90;29.80
62154;DHT22;48140;45.486;9.226;2023-07-08T16:22:15;34.10;30.00
62154;DHT22;48140;45.486;9.226;2023-07-08T16:24:41;34.20;30.40
62154;DHT22;48140;45.486;9.226;2023-07-08T16:27:07;34.30;29.90
62154;DHT22;48140;45.486;9.226;2023-07-08T16:29:33;34.10;30.70
62154;DHT22;48140;45.486;9.226;2023-07-08T16:32:00;34.20;31.00
62154;DHT22;48140;45.486;9.226;2023-07-08T16:34:25;34.20;30.80
62154;DHT22;48140;45.486;9.226;2023-07-08T16:36:51;34.30;30.20
62154;DHT22;48140;45.486;9.226;2023-07-08T16:39:16;34.50;30.60
62154;DHT22;48140;45.486;9.226;2023-07-08T16:41:42;34.20;30.60
62154;DHT22;48140;45.486;9.226;2023-07-08T16:44:14;34.20;31.90
62154;DHT22;48140;45.486;9.226;2023-07-08T16:46:40;34.00;32.40
62154;DHT22;48140;45.486;9.226;2023-07-08T16:49:07;34.00;32.70
62154;DHT22;48140;45.486;9.226;2023-07-08T16:51:32;34.00;32.50
62154;DHT22;48140;45.486;9.226;2023-07-08T16:54:16;34.00;32.60
62154;DHT22;48140;45.486;9.226;2023-07-08T16:56:42;33.90;32.90
62154;DHT22;48140;45.486;9.226;2023-07-08T16:59:11;33.50;33.50
62154;DHT22;48140;45.486;9.226;2023-07-08T17:01:36;33.50;34.30
62154;DHT22;48140;45.486;9.226;2023-07-08T17:04:02;33.60;34.10
62154;DHT22;48140;45.486;9.226;2023-07-08T17:06:27;33.60;34.20
62154;DHT22;48140;45.486;9.226;2023-07-08T17:08:53;33.70;34.20
62154;DHT22;48140;45.486;9.226;2023-07-08T17:11:19;33.60;34.10
62154;DHT22;48140;45.486;9.226;2023-07-08T17:13:44;33.60;34.40
62154;DHT22;48140;45.486;9.226;2023-07-08T17:16:18;33.50;35.30
62154;DHT22;48140;45.486;9.226;2023-07-08T17:18:44;33.10;35.80